Time;durP1;ratioP1;P1;durP2;ratioP2;P2;SDS_P1;SDS_P2;PMS_P1;PMS_P2;Temp;Humidity;BMP_temperature;BMP_pressure;BME280_temperature;BME280_humidity;BME280_pressure;Samples;Min_cycle;Max_cycle;Signal;HPM_P1;HPM_P2
2023/08/19 00:00:14;;;;;;;53.45;35.65;;;;;;;-142.75;100.00;75125.69;5047809;28;20025;-61
2023/08/19 00:02:41;;;;;;;54.08;34.95;;;;;;;-142.75;100.00;75129.63;5048906;28;20035;-61
2023/08/19 00:05:07;;;;;;;57.90;36.17;;;;;;;-142.75;100.00;75125.69;5048549;28;20511;-61
2023/08/19 00:07:32;;;;;;;46.13;32.33;;;;;;;-142.75;100.00;75113.88;5049219;28;20029;-62
2023/08/19 00:09:57;;;;;;;50.08;34.55;;;;;;;-142.75;100.00;75121.75;5049058;28;20025;-61
2023/08/19 00:12:23;;;;;;;48.08;31.88;;;;;;;-142.75;100.00;75115.84;5049132;28;20111;-61
2023/08/19 00:14:49;;;;;;;48.30;34.25;;;;;;;-142.75;100.00;75121.75;5048394;28;20100;-61
2023/08/19 00:17:16;;;;;;;51.15;33.45;;;;;;;-142.75;100.00;75111.91;5049174;28;20024;-61
2023/08/19 00:19:41;;;;;;;51.00;33.47;;;;;;;-142.75;100.00;75109.94;5048935;28;20028;-62
2023/08/19 00:22:07;;;;;;;44.88;31.65;;;;;;;-142.75;100.00;75102.06;5048333;28;20040;-61
2023/08/19 00:24:33;;;;;;;46.33;30.25;;;;;;;-142.75;100.00;75106.00;5047009;28;20067;-61
2023/08/19 00:27:00;;;;;;;43.13;30.67;;;;;;;-142.75;100.00;75092.25;5048397;28;20066;-61
2023/08/19 00:29:25;;;;;;;48.72;31.95;;;;;;;-142.75;100.00;75100.09;5048363;28;20060;-62
2023/08/19 00:31:51;;;;;;;42.40;29.45;;;;;;;-142.75;100.00;75100.09;5048255;28;20467;-62
2023/08/19 00:34:16;;;;;;;42.47;29.85;;;;;;;-142.75;100.00;75092.25;5048446;28;20119;-62
2023/08/19 00:36:41;;;;;;;46.95;30.55;;;;;;;-142.75;100.00;75098.16;5048375;28;20024;-61
2023/08/19 00:39:07;;;;;;;41.53;29.30;;;;;;;-142.75;100.00;75092.25;5047983;28;20037;-61
2023/08/19 00:41:33;;;;;;;42.00;29.65;;;;;;;-142.75;100.00;75107.97;5049210;28;20090;-61
2023/08/19 00:43:58;;;;;;;45.03;31.42;;;;;;;-142.75;100.00;75098.16;5047978;28;20033;-61
2023/08/19 00:46:25;;;;;;;42.28;29.65;;;;;;;-142.75;100.00;75094.22;5048456;28;20032;-61
2023/08/19 00:48:50;;;;;;;44.53;29.83;;;;;;;-142.75;100.00;75088.31;5048536;28;20036;-61
2023/08/19 00:51:17;;;;;;;45.25;29.48;;;;;;;-142.75;100.00;75086.34;5048557;28;20021;-61
2023/08/19 00:53:43;;;;;;;39.70;27.30;;;;;;;-142.75;100.00;75078.47;5047505;28;20086;-61
2023/08/19 00:56:09;;;;;;;38.30;27.63;;;;;;;-142.75;100.00;75072.56;5047854;28;20400;-61
2023/08/19 00:58:34;;;;;;;38.25;26.58;;;;;;;-142.75;100.00;75070.59;5046191;28;20158;-61
2023/08/19 01:01:00;;;;;;;35.92;26.55;;;;;;;-142.75;100.00;75064.69;5027984;28;20025;-61
2023/08/19 01:03:25;;;;;;;35.10;26.90;;;;;;;-142.75;100.00;75066.66;5027836;28;20485;-61
2023/08/19 01:05:59;;;;;;;37.38;26.55;;;;;;;-142.75;100.00;75062.72;5027855;28;20549;-61
2023/08/19 01:08:37;;;;;;;42.83;28.20;;;;;;;-142.75;100.00;75062.72;5027603;28;20115;-61
2023/08/19 01:11:09;;;;;;;34.88;25.50;;;;;;;-142.75;100.00;75062.72;5028352;28;20022;-61
2023/08/19 01:14:04;;;;;;;36.92;25.67;;;;;;;-142.75;100.00;75050.91;5027512;28;20029;-62
2023/08/19 01:16:31;;;;;;;38.97;26.38;;;;;;;-142.75;100.00;75060.75;5026683;28;20084;-61
2023/08/19 01:18:59;;;;;;;34.97;25.98;;;;;;;-142.75;100.00;75048.94;5026271;28;20111;-61
2023/08/19 01:21:25;;;;;;;35.58;26.55;;;;;;;-142.75;100.00;75052.88;5027497;28;20021;-61
2023/08/19 01:23:54;;;;;;;39.08;28.67;;;;;;;-142.75;100.00;75058.78;5027158;28;20021;-61
2023/08/19 01:26:19;;;;;;;33.67;25.27;;;;;;;-142.75;100.00;75050.91;5027559;28;20029;-61
2023/08/19 01:28:45;;;;;;;37.83;26.13;;;;;;;-142.75;100.00;75050.91;5039347;28;20456;-60
2023/08/19 01:31:11;;;;;;;36.65;25.95;;;;;;;-142.75;100.00;75050.91;5047307;28;20442;-61
2023/08/19 01:33:36;;;;;;;36.22;27.23;;;;;;;-142.75;100.00;75046.97;5047068;28;20281;-61
2023/08/19 01:36:30;;;;;;;40.47;26.52;;;;;;;-142.75;100.00;75037.16;5046818;28;20021;-61
2023/08/19 01:39:04;;;;;;;35.85;26.45;;;;;;;-142.75;100.00;75031.25;5047338;28;20028;-60
2023/08/19 01:41:31;;;;;;;32.83;24.33;;;;;;;-142.75;100.00;75023.38;5047884;28;20025;-61
2023/08/19 01:43:58;;;;;;;36.08;26.63;;;;;;;-142.75;100.00;75031.25;5046741;28;20029;-61
2023/08/19 01:46:27;;;;;;;31.73;23.90;;;;;;;-142.75;100.00;75019.44;5046728;28;20017;-61
2023/08/19 01:48:52;;;;;;;29.63;22.02;;;;;;;-142.75;100.00;75011.56;5046937;28;20645;-61
2023/08/19 01:51:18;;;;;;;34.10;23.40;;;;;;;-142.75;100.00;75017.47;5045401;28;20107;-61
2023/08/19 01:53:43;;;;;;;34.88;24.08;;;;;;;-142.75;100.00;75019.44;5046498;28;20024;-61
2023/08/19 01:56:09;;;;;;;35.40;26.50;;;;;;;-142.75;100.00;75029.28;5046711;28;20016;-61
2023/08/19 01:58:35;;;;;;;35.00;25.60;;;;;;;-142.75;100.00;75031.25;5046752;28;20039;-61
2023/08/19 02:01:00;;;;;;;33.38;25.17;;;;;;;-142.75;100.00;75033.22;5046993;28;20025;-61
2023/08/19 02:03:26;;;;;;;37.03;26.27;;;;;;;-142.75;100.00;75031.25;5046693;28;20016;-60
2023/08/19 02:05:51;;;;;;;33.97;26.08;;;;;;;-142.75;100.00;75029.28;5046487;28;20029;-60
2023/08/19 02:08:17;;;;;;;37.38;26.20;;;;;;;-142.75;100.00;75027.31;5046654;28;20036;-61
2023/08/19 02:10:42;;;;;;;35.30;26.23;;;;;;;-142.75;100.00;75017.47;5047654;28;20025;-61
2023/08/19 02:13:08;;;;;;;36.50;25.42;;;;;;;-142.75;100.00;75019.44;5047151;28;20035;-61
2023/08/19 02:15:34;;;;;;;37.88;25.17;;;;;;;-142.75;100.00;75011.56;5046897;28;20017;-61
2023/08/19 02:17:59;;;;;;;38.42;26.70;;;;;;;-142.75;100.00;75019.44;5046726;28;20036;-61
2023/08/19 02:20:25;;;;;;;32.22;25.23;;;;;;;-142.75;100.00;75015.50;5047133;28;20101;-61
2023/08/19 02:22:50;;;;;;;38.20;26.73;;;;;;;-142.75;100.00;75019.44;5046601;28;20100;-61
2023/08/19 02:25:16;;;;;;;36.25;26.80;;;;;;;-142.75;100.00;75019.44;5049954;28;20443;-61
2023/08/19 02:27:42;;;;;;;35.67;25.33;;;;;;;-142.75;100.00;75007.63;5050546;28;20055;-61
2023/08/19 02:30:10;;;;;;;36.05;26.13;;;;;;;-142.75;100.00;75001.72;5051067;28;20027;-61
2023/08/19 02:32:35;;;;;;;37.83;25.92;;;;;;;-142.75;100.00;75001.72;5051129;28;20032;-61
2023/08/19 02:35:01;;;;;;;33.05;24.42;;;;;;;-142.75;100.00;74995.81;5051011;28;20023;-61
2023/08/19 02:37:26;;;;;;;35.10;25.75;;;;;;;-142.75;100.00;74991.88;5051271;28;20400;-61
2023/08/19 02:39:52;;;;;;;36.38;23.80;;;;;;;-142.75;100.00;74999.75;5050902;28;20029;-61
2023/08/19 02:42:17;;;;;;;34.38;25.85;;;;;;;-142.75;100.00;75007.63;5051234;28;20108;-61
2023/08/19 02:44:43;;;;;;;32.40;23.95;;;;;;;-142.75;100.00;74991.88;5050528;28;20021;-61
2023/08/19 02:47:08;;;;;;;36.78;25.65;;;;;;;-142.75;100.00;74987.94;5051331;28;20060;-61
2023/08/19 02:49:36;;;;;;;33.35;24.27;;;;;;;-142.75;100.00;74984.00;5050951;28;20071;-61
2023/08/19 02:52:02;;;;;;;32.78;23.70;;;;;;;-142.75;100.00;74980.06;5050780;28;20025;-61
2023/08/19 02:54:27;;;;;;;31.38;23.58;;;;;;;-142.75;100.00;74987.94;5049721;28;20029;-61
2023/08/19 02:56:53;;;;;;;37.05;24.52;;;;;;;-142.75;100.00;74984.00;5050169;28;20043;-61
2023/08/19 02:59:18;;;;;;;34.78;24.40;;;;;;;-142.75;100.00;74984.00;5050423;28;20561;-61
2023/08/19 03:01:44;;;;;;;34.63;25.02;;;;;;;-142.75;100.00;74985.97;5050317;28;20078;-61
2023/08/19 03:04:09;;;;;;;35.92;26.00;;;;;;;-142.75;100.00;75003.69;5049887;28;20082;-61
2023/08/19 03:06:34;;;;;;;33.58;25.42;;;;;;;-142.75;100.00;75003.69;5046983;28;20025;-62
2023/08/19 03:08:59;;;;;;;35.72;24.38;;;;;;;-142.75;100.00;74984.00;5030044;28;20036;-61
2023/08/19 03:11:25;;;;;;;36.40;24.75;;;;;;;-142.75;100.00;74995.81;5031074;28;20060;-61
2023/08/19 03:13:50;;;;;;;36.25;26.25;;;;;;;-142.75;100.00;74984.00;5029725;28;20052;-61
2023/08/19 03:16:16;;;;;;;36.25;25.52;;;;;;;-142.75;100.00;74984.00;5029782;28;20416;-61
2023/08/19 03:18:42;;;;;;;37.72;25.23;;;;;;;-142.75;100.00;74966.31;5029951;28;20037;-61
2023/08/19 03:21:07;;;;;;;33.80;26.30;;;;;;;-142.75;100.00;74966.31;5029436;28;20030;-62
2023/08/19 03:23:32;;;;;;;35.50;24.40;;;;;;;-142.75;100.00;74978.13;5029679;28;20033;-61
2023/08/19 03:25:58;;;;;;;32.90;24.38;;;;;;;-142.75;100.00;74974.19;5029557;28;20079;-61
2023/08/19 03:28:24;;;;;;;36.35;25.10;;;;;;;-142.75;100.00;74976.16;5029881;28;20061;-61
2023/08/19 03:30:50;;;;;;;38.58;24.10;;;;;;;-142.75;100.00;74985.97;5029652;28;20056;-61
2023/08/19 03:33:15;;;;;;;31.40;23.50;;;;;;;-142.75;100.00;74976.16;5029390;28;20036;-61
2023/08/19 03:35:41;;;;;;;36.05;25.35;;;;;;;-142.75;100.00;74984.00;5029520;28;20077;-61
2023/08/19 03:38:06;;;;;;;37.90;24.20;;;;;;;-142.75;100.00;74984.00;5029491;28;20112;-61
2023/08/19 03:40:32;;;;;;;38.55;25.88;;;;;;;-142.75;100.00;74991.88;5029945;28;20109;-62
2023/08/19 03:42:57;;;;;;;36.55;24.73;;;;;;;-142.75;100.00;74991.88;5029738;28;20079;-61
2023/08/19 03:45:22;;;;;;;33.20;24.05;;;;;;;-142.75;100.00;74984.00;5029482;28;20032;-61
2023/08/19 03:47:47;;;;;;;32.90;23.15;;;;;;;-142.75;100.00;74972.22;5030024;28;20028;-60
2023/08/19 03:50:13;;;;;;;32.50;24.20;;;;;;;-142.75;100.00;74984.00;5028587;28;20053;-61
2023/08/19 03:52:38;;;;;;;34.63;23.48;;;;;;;-142.75;100.00;74982.03;5029604;28;20076;-61
2023/08/19 03:55:05;;;;;;;30.52;22.50;;;;;;;-142.75;100.00;74995.81;5029371;28;20029;-61
2023/08/19 03:57:30;;;;;;;35.25;24.45;;;;;;;-142.75;100.00;75003.69;5029317;28;20029;-61
2023/08/19 03:59:56;;;;;;;36.08;23.13;;;;;;;-142.75;100.00;75011.56;5029114;28;20025;-61
2023/08/19 04:02:21;;;;;;;29.15;22.52;;;;;;;-142.75;100.00;75011.56;5029274;28;20057;-61
2023/08/19 04:05:01;;;;;;;32.15;22.35;;;;;;;-142.75;100.00;75007.63;5029115;28;20381;-61
2023/08/19 04:07:26;;;;;;;29.92;23.02;;;;;;;-142.75;100.00;75011.56;5029153;28;20040;-61
2023/08/19 04:09:54;;;;;;;32.92;23.45;;;;;;;-142.75;100.00;74999.75;5029169;28;20017;-61
2023/08/19 04:12:19;;;;;;;30.63;22.92;;;;;;;-142.75;100.00;75003.69;5029693;28;20113;-61
2023/08/19 04:14:45;;;;;;;31.92;23.42;;;;;;;-142.75;100.00;74999.75;5028662;28;20444;-61
2023/08/19 04:17:10;;;;;;;28.58;22.10;;;;;;;-142.75;100.00;75003.69;5029143;28;20033;-61
2023/08/19 04:19:36;;;;;;;33.22;24.23;;;;;;;-142.75;100.00;75009.59;5028884;28;20040;-61
2023/08/19 04:22:01;;;;;;;31.88;23.83;;;;;;;-142.75;100.00;74997.78;5028965;28;20028;-61
2023/08/19 04:24:27;;;;;;;35.05;25.58;;;;;;;-142.75;100.00;75005.66;5028690;28;20052;-61
2023/08/19 04:26:53;;;;;;;33.20;24.50;;;;;;;-142.75;100.00;75007.63;5028895;28;20112;-61
2023/08/19 04:29:18;;;;;;;32.25;23.83;;;;;;;-142.75;100.00;75005.66;5028469;28;20060;-61
2023/08/19 04:31:44;;;;;;;32.25;23.33;;;;;;;-142.75;100.00;74995.81;5027175;28;20029;-61
2023/08/19 04:34:09;;;;;;;31.17;22.60;;;;;;;-142.75;100.00;74989.91;5028293;28;20660;-61
2023/08/19 04:36:34;;;;;;;30.25;22.10;;;;;;;-142.75;100.00;74984.00;5028522;28;20021;-61
2023/08/19 04:39:00;;;;;;;29.45;22.52;;;;;;;-142.75;100.00;74991.88;5028516;28;20578;-61
2023/08/19 04:41:25;;;;;;;29.58;20.45;;;;;;;-142.75;100.00;74976.16;5029046;28;20036;-61
2023/08/19 04:43:51;;;;;;;30.10;21.60;;;;;;;-142.75;100.00;74980.06;5028311;28;20031;-60
2023/08/19 04:46:16;;;;;;;30.90;20.70;;;;;;;-142.75;100.00;74980.06;5027815;28;20085;-61
2023/08/19 04:48:41;;;;;;;30.20;20.67;;;;;;;-142.75;100.00;74984.00;5028124;28;20104;-61
2023/08/19 04:51:07;;;;;;;26.67;20.75;;;;;;;-142.75;100.00;74980.06;5028239;28;20807;-61
2023/08/19 04:53:32;;;;;;;25.83;18.77;;;;;;;-142.75;100.00;74989.91;5028089;28;20438;-61
2023/08/19 04:56:03;;;;;;;29.08;20.83;;;;;;;-142.75;100.00;74991.88;5028561;28;20037;-61
2023/08/19 04:58:29;;;;;;;25.55;19.38;;;;;;;-142.75;100.00;74995.81;5028471;28;20124;-61
2023/08/19 05:00:54;;;;;;;27.30;18.70;;;;;;;-142.75;100.00;74995.81;5028125;28;20049;-61
2023/08/19 05:03:20;;;;;;;25.00;19.17;;;;;;;-142.75;100.00;74995.81;5028077;28;20489;-60
2023/08/19 05:05:45;;;;;;;25.58;18.88;;;;;;;-142.75;100.00;75001.72;5027963;28;20077;-61
2023/08/19 05:08:10;;;;;;;24.70;18.17;;;;;;;-142.75;100.00;74993.84;5028259;28;20029;-61
2023/08/19 05:10:36;;;;;;;23.50;18.60;;;;;;;-142.75;100.00;74993.84;5028177;28;20061;-61
2023/08/19 05:13:01;;;;;;;26.25;18.27;;;;;;;-142.75;100.00;74991.88;5028488;28;20022;-61
2023/08/19 05:15:27;;;;;;;26.45;19.20;;;;;;;-142.75;100.00;74995.81;5027642;28;20068;-61
2023/08/19 05:17:52;;;;;;;25.23;17.67;;;;;;;-142.75;100.00;75003.69;5028036;28;20048;-61
2023/08/19 05:20:18;;;;;;;21.70;17.38;;;;;;;-142.75;100.00;75003.69;5027771;28;20052;-61
2023/08/19 05:22:43;;;;;;;24.83;17.23;;;;;;;-142.75;100.00;75003.69;5027905;28;20048;-61
2023/08/19 05:25:09;;;;;;;23.98;17.77;;;;;;;-142.75;100.00;75003.69;5027655;28;20075;-60
2023/08/19 05:27:34;;;;;;;25.90;16.80;;;;;;;-142.75;100.00;75009.59;5027609;28;20025;-61
2023/08/19 05:30:00;;;;;;;21.75;17.42;;;;;;;-142.75;100.00;75001.72;5027971;28;20025;-60
2023/08/19 05:32:25;;;;;;;22.88;17.30;;;;;;;-142.75;100.00;74997.78;5028176;28;20163;-61
2023/08/19 05:34:50;;;;;;;21.20;16.17;;;;;;;-142.75;100.00;74999.75;5027769;28;20040;-61
2023/08/19 05:37:16;;;;;;;21.50;17.20;;;;;;;-142.75;100.00;75003.69;5027410;28;20021;-61
2023/08/19 05:39:41;;;;;;;25.73;16.75;;;;;;;-142.75;100.00;74991.88;5027417;28;20087;-61
2023/08/19 05:42:07;;;;;;;20.85;15.77;;;;;;;-142.75;100.00;74991.88;5027910;28;20248;-61
2023/08/19 05:44:32;;;;;;;24.27;17.02;;;;;;;-142.75;100.00;74995.81;5026925;28;20060;-61
2023/08/19 05:46:57;;;;;;;24.58;15.68;;;;;;;-142.75;100.00;75007.63;5027561;28;20025;-62
2023/08/19 05:49:23;;;;;;;23.40;17.35;;;;;;;-142.75;100.00;75007.63;5027523;28;20052;-61
2023/08/19 05:51:48;;;;;;;22.67;17.13;;;;;;;-142.75;100.00;75005.66;5027619;28;20026;-61
2023/08/19 05:54:14;;;;;;;24.92;17.50;;;;;;;-142.75;100.00;75003.69;5027276;28;20060;-61
2023/08/19 05:56:39;;;;;;;24.58;17.42;;;;;;;-142.75;100.00;74999.75;5027162;28;20131;-62
2023/08/19 05:59:04;;;;;;;21.65;16.42;;;;;;;-142.75;100.00;74997.78;5026397;28;20048;-62
2023/08/19 06:01:30;;;;;;;23.70;16.75;;;;;;;-142.75;100.00;74999.75;5027122;28;20029;-62
2023/08/19 06:03:55;;;;;;;20.13;16.02;;;;;;;-142.75;100.00;74995.81;5026867;28;20061;-62
2023/08/19 06:06:20;;;;;;;20.55;15.95;;;;;;;-142.75;100.00;74999.75;5027392;28;20108;-61
2023/08/19 06:08:46;;;;;;;20.65;15.63;;;;;;;-142.75;100.00;74991.88;5027439;28;20048;-62
2023/08/19 06:11:11;;;;;;;21.98;16.40;;;;;;;-142.75;100.00;74976.16;5027464;28;20036;-61
2023/08/19 06:13:37;;;;;;;20.65;15.38;;;;;;;-142.75;100.00;74964.34;5026505;28;20025;-61
2023/08/19 06:16:04;;;;;;;17.90;15.02;;;;;;;-142.75;100.00;74966.31;5026948;28;20021;-61
2023/08/19 06:18:30;;;;;;;23.40;15.25;;;;;;;-142.75;100.00;74960.41;5027090;28;20064;-62
2023/08/19 06:20:56;;;;;;;21.00;15.57;;;;;;;-142.75;100.00;74972.22;5026898;28;20045;-61
2023/08/19 06:23:22;;;;;;;19.50;15.02;;;;;;;-142.75;100.00;75005.66;5026908;28;20021;-61
2023/08/19 06:25:50;;;;;;;21.55;15.40;;;;;;;-142.75;100.00;75011.56;5026125;28;20076;-61
2023/08/19 06:28:16;;;;;;;19.98;14.57;;;;;;;-142.75;100.00;75011.56;5026173;28;20026;-62
2023/08/19 06:30:42;;;;;;;20.50;14.88;;;;;;;-142.75;100.00;75023.38;5026252;28;20033;-62
2023/08/19 06:33:08;;;;;;;17.13;13.30;;;;;;;-142.75;100.00;75017.47;5025996;28;20021;-61
2023/08/19 06:35:34;;;;;;;25.48;14.55;;;;;;;-142.75;100.00;75027.31;5025943;28;20028;-61
2023/08/19 06:38:03;;;;;;;18.60;13.38;;;;;;;-142.75;100.00;75011.56;5026434;28;20025;-62
2023/08/19 06:40:34;;;;;;;18.40;14.02;;;;;;;-142.75;100.00;75023.38;5026024;28;20041;-61
2023/08/19 06:43:00;;;;;;;20.67;13.98;;;;;;;-142.75;100.00;75025.34;5026629;28;20025;-62
2023/08/19 06:45:26;;;;;;;18.27;12.65;;;;;;;-142.75;100.00;75011.56;5026033;28;20040;-61
2023/08/19 06:47:53;;;;;;;18.25;13.98;;;;;;;-142.75;100.00;75019.44;5026249;28;20036;-62
2023/08/19 06:50:19;;;;;;;16.98;14.10;;;;;;;-142.75;100.00;75015.50;5026516;28;20117;-61
2023/08/19 06:52:44;;;;;;;17.25;13.85;;;;;;;-142.75;100.00;75021.41;5026268;28;20108;-61
2023/08/19 06:55:10;;;;;;;20.17;13.93;;;;;;;-142.75;100.00;75019.44;5026623;28;20031;-61
2023/08/19 06:57:44;;;;;;;22.70;13.32;;;;;;;-142.75;100.00;75021.41;5042990;28;20025;-62
2023/08/19 07:00:12;;;;;;;23.42;13.57;;;;;;;-142.75;100.00;75005.66;5046217;28;20140;-61
2023/08/19 07:02:39;;;;;;;16.85;13.02;;;;;;;-142.75;100.00;75003.69;5046828;28;20036;-61
2023/08/19 07:05:12;;;;;;;17.48;13.50;;;;;;;-142.75;100.00;75007.63;5046370;28;20119;-61
2023/08/19 07:07:39;;;;;;;17.75;13.32;;;;;;;-142.75;100.00;75011.56;5046232;28;20062;-61
2023/08/19 07:10:05;;;;;;;18.88;14.15;;;;;;;-142.75;100.00;74989.91;5047664;28;20033;-62
2023/08/19 07:12:32;;;;;;;15.70;12.13;;;;;;;-142.75;100.00;74980.06;5046922;28;20033;-61
2023/08/19 07:14:58;;;;;;;17.27;12.05;;;;;;;-142.75;100.00;74999.75;5029613;28;20029;-61
2023/08/19 07:17:28;;;;;;;16.77;11.65;;;;;;;-142.75;100.00;74999.75;5030628;28;20083;-61
2023/08/19 07:19:54;;;;;;;17.42;12.38;;;;;;;-142.75;100.00;74991.88;5028688;28;20116;-61
2023/08/19 07:22:21;;;;;;;19.40;12.20;;;;;;;-142.75;100.00;74974.19;5029749;28;20135;-61
2023/08/19 07:24:48;;;;;;;18.13;12.05;;;;;;;-142.75;100.00;74970.25;5030117;28;20079;-63
2023/08/19 07:27:14;;;;;;;15.73;11.70;;;;;;;-142.75;100.00;74972.22;5029854;28;20025;-63
2023/08/19 07:29:41;;;;;;;14.27;10.88;;;;;;;-142.75;100.00;74952.53;5031050;28;20542;-61
2023/08/19 07:32:07;;;;;;;15.05;11.18;;;;;;;-142.75;100.00;74956.47;5030125;28;20473;-61
2023/08/19 07:34:32;;;;;;;15.00;11.60;;;;;;;-142.75;100.00;74942.69;5029010;28;20037;-61
2023/08/19 07:36:58;;;;;;;14.60;10.95;;;;;;;-142.75;100.00;74936.78;5030246;28;20029;-61
2023/08/19 07:39:25;;;;;;;17.13;10.05;;;;;;;-142.75;100.00;74928.91;5029537;28;20060;-61
2023/08/19 07:41:50;;;;;;;15.80;10.55;;;;;;;-142.75;100.00;74946.63;5027250;28;20018;-61
2023/08/19 07:44:15;;;;;;;15.23;10.23;;;;;;;-142.75;100.00;74964.34;5028477;28;20399;-61
2023/08/19 07:46:41;;;;;;;17.02;10.55;;;;;;;-142.75;100.00;74976.16;5029784;28;20025;-61
2023/08/19 07:49:06;;;;;;;14.38;10.18;;;;;;;-142.75;100.00;74985.97;5029883;28;20029;-61
2023/08/19 07:51:32;;;;;;;15.13;10.25;;;;;;;-142.75;100.00;74984.00;5030324;28;20026;-61
2023/08/19 07:53:57;;;;;;;15.35;10.18;;;;;;;-142.75;100.00;74989.91;5029895;28;20040;-61
2023/08/19 07:56:22;;;;;;;13.57;10.93;;;;;;;-142.75;100.00;74999.75;5030062;28;20017;-61
2023/08/19 07:58:48;;;;;;;13.93;10.10;;;;;;;-142.75;100.00;74984.00;5025083;28;20388;-61
2023/08/19 08:01:13;;;;;;;15.18;10.55;;;;;;;-142.75;100.00;74972.22;5029048;28;20116;-61
2023/08/19 08:03:39;;;;;;;14.65;10.73;;;;;;;-142.75;100.00;74972.22;5028133;28;20032;-61
2023/08/19 08:06:05;;;;;;;14.77;10.90;;;;;;;-142.75;100.00;74984.00;5028018;28;20044;-61
2023/08/19 08:08:30;;;;;;;13.68;11.05;;;;;;;-142.75;100.00;74984.00;5026624;28;20037;-61
2023/08/19 08:10:56;;;;;;;14.77;11.70;;;;;;;-142.75;100.00;74999.75;5026869;28;20049;-61
2023/08/19 08:13:21;;;;;;;15.32;11.02;;;;;;;-142.75;100.00;74987.94;5023567;28;20061;-61
2023/08/19 08:15:47;;;;;;;15.45;10.98;;;;;;;-142.75;100.00;74984.00;5027390;28;20029;-60
2023/08/19 08:18:13;;;;;;;16.38;11.43;;;;;;;-142.75;100.00;74956.47;5028088;28;20017;-60
2023/08/19 08:20:39;;;;;;;17.52;12.32;;;;;;;-142.75;100.00;74940.72;5027668;28;20022;-60
2023/08/19 08:23:04;;;;;;;17.33;11.57;;;;;;;-142.75;100.00;74928.91;5026175;28;20017;-61
2023/08/19 08:25:29;;;;;;;16.77;11.20;;;;;;;-142.75;100.00;74928.91;5025169;28;20065;-61
2023/08/19 08:27:55;;;;;;;17.40;11.32;;;;;;;-142.75;100.00;74895.47;5034319;28;20025;-60
2023/08/19 08:30:21;;;;;;;16.30;11.25;;;;;;;-142.75;100.00;74889.56;5010269;28;20027;-61
2023/08/19 08:32:46;;;;;;;14.05;9.52;;;;;;;-142.75;100.00;74899.41;5027824;28;20081;-61
2023/08/19 08:35:11;;;;;;;16.90;10.10;;;;;;;-142.75;100.00;74903.34;5027030;28;20021;-61
2023/08/19 08:37:36;;;;;;;14.50;9.93;;;;;;;-142.75;100.00;74873.81;5026200;28;20030;-61
2023/08/19 08:40:03;;;;;;;17.30;9.20;;;;;;;-142.75;100.00;74864.00;5025527;28;20053;-60
2023/08/19 08:42:29;;;;;;;14.57;9.88;;;;;;;-142.75;100.00;74852.19;5022121;28;20116;-61
2023/08/19 08:44:55;;;;;;;11.82;9.02;;;;;;;-142.75;100.00;74862.03;5027757;28;20319;-61
2023/08/19 08:47:22;;;;;;;10.90;8.20;;;;;;;-142.75;100.00;74850.22;5027480;28;20029;-61
2023/08/19 08:49:49;;;;;;;13.13;8.77;;;;;;;-142.75;100.00;74865.97;5025782;28;20033;-61
2023/08/19 08:52:14;;;;;;;13.77;9.13;;;;;;;-142.75;100.00;74889.56;5026601;28;20029;-62
2023/08/19 08:54:42;;;;;;;16.70;9.00;;;;;;;-142.75;100.00;74897.44;5024509;28;20018;-61
2023/08/19 08:57:07;;;;;;;11.90;7.53;;;;;;;-142.75;100.00;74921.06;5026316;28;20037;-61
2023/08/19 08:59:33;;;;;;;10.73;7.32;;;;;;;-142.75;100.00;74938.75;5026965;28;20044;-62
2023/08/19 09:01:59;;;;;;;10.88;7.38;;;;;;;-142.75;100.00;74980.06;5026164;28;20056;-61
2023/08/19 09:04:28;;;;;;;11.40;7.05;;;;;;;-142.75;100.00;74987.94;5025937;28;20029;-62
2023/08/19 09:07:00;;;;;;;11.63;7.45;;;;;;;-142.75;100.00;74999.75;5024888;28;20116;-61
2023/08/19 09:09:30;;;;;;;12.02;7.05;;;;;;;-142.75;100.00;75011.56;5024838;28;20114;-61
2023/08/19 09:11:58;;;;;;;11.05;6.72;;;;;;;-142.75;100.00;75031.25;5023421;28;20050;-61
2023/08/19 09:14:44;;;;;;;11.70;7.40;;;;;;;-142.75;100.00;75046.97;5026969;28;20099;-61
2023/08/19 09:17:12;;;;;;;10.30;6.35;;;;;;;-142.75;100.00;75082.41;5027188;28;20025;-61
2023/08/19 09:19:38;;;;;;;10.73;6.70;;;;;;;-142.75;100.00;75102.06;5025562;28;20036;-62
2023/08/19 09:22:15;;;;;;;10.65;5.95;;;;;;;-142.75;100.00;75121.75;5026158;28;20021;-61
2023/08/19 09:24:41;;;;;;;10.23;5.28;;;;;;;-142.75;100.00;75109.94;5023487;28;20427;-61
2023/08/19 09:27:06;;;;;;;9.15;5.50;;;;;;;-142.75;100.00;75113.88;5024747;28;20121;-60
2023/08/19 09:29:33;;;;;;;7.78;5.00;;;;;;;-142.75;100.00;75149.31;5027007;28;20049;-60
2023/08/19 09:31:59;;;;;;;7.50;4.10;;;;;;;-142.75;100.00;75151.28;5027823;28;20030;-61
2023/08/19 09:34:24;;;;;;;6.70;4.10;;;;;;;-142.75;100.00;75161.13;5027305;28;20060;-60
2023/08/19 09:36:54;;;;;;;6.75;4.13;;;;;;;-142.75;100.00;75180.78;5025102;28;20148;-61
2023/08/19 09:39:20;;;;;;;7.57;4.00;;;;;;;-142.75;100.00;75196.53;5027724;28;20029;-61
2023/08/19 09:41:45;;;;;;;7.55;3.80;;;;;;;-142.75;100.00;75204.41;5026658;28;20075;-61
2023/08/19 09:44:13;;;;;;;6.78;3.35;;;;;;;-142.75;100.00;75170.94;5027558;28;20394;-61
2023/08/19 09:46:39;;;;;;;5.53;3.22;;;;;;;-142.75;100.00;75153.25;5028068;28;20473;-61
2023/08/19 09:49:04;;;;;;;4.00;2.65;;;;;;;-142.75;100.00;75182.75;5027815;28;20031;-61
2023/08/19 09:51:30;;;;;;;5.47;2.95;;;;;;;-142.75;100.00;75186.69;5027657;28;20559;-62
2023/08/19 09:53:56;;;;;;;7.00;2.83;;;;;;;-142.75;100.00;75155.22;5027474;28;20026;-61
2023/08/19 09:56:24;;;;;;;4.78;2.30;;;;;;;-142.75;100.00;75125.69;5027622;28;20025;-61
2023/08/19 09:58:51;;;;;;;5.10;2.80;;;;;;;-142.75;100.00;75125.69;5027793;28;20021;-61
2023/08/19 10:01:16;;;;;;;5.47;3.05;;;;;;;-142.75;100.00;75111.91;5028231;28;20496;-62
2023/08/19 10:03:42;;;;;;;4.90;3.10;;;;;;;-142.75;100.00;75113.88;5026103;28;20029;-62
2023/08/19 10:06:13;;;;;;;5.25;2.72;;;;;;;-142.75;100.00;75147.34;5027654;28;20132;-62
2023/08/19 10:08:43;;;;;;;9.73;3.28;;;;;;;-142.75;100.00;75180.78;5028597;28;20105;-64
2023/08/19 10:11:08;;;;;;;6.22;3.55;;;;;;;-142.75;100.00;75196.53;5023017;28;20404;-64
2023/08/19 10:13:35;;;;;;;5.85;3.60;;;;;;;-142.75;100.00;75208.34;5027381;28;20040;-62
2023/08/19 10:16:04;;;;;;;7.35;4.65;;;;;;;-142.75;100.00;75220.16;5029067;28;20021;-63
2023/08/19 10:18:35;;;;;;;6.28;3.60;;;;;;;-142.75;100.00;75202.44;5029185;28;20029;-62
2023/08/19 10:21:05;;;;;;;7.10;3.95;;;;;;;-142.75;100.00;75228.00;5025967;28;20497;-63
2023/08/19 10:23:33;;;;;;;8.77;4.65;;;;;;;-142.75;100.00;75220.16;5024528;28;20397;-62
2023/08/19 10:25:58;;;;;;;8.98;4.10;;;;;;;-142.75;100.00;75212.28;5026526;28;20029;-61
2023/08/19 10:28:27;;;;;;;6.43;4.22;;;;;;;-142.75;100.00;75200.47;5037541;28;20048;-62
2023/08/19 10:31:15;;;;;;;7.13;4.43;;;;;;;-142.75;100.00;75202.44;5039244;28;20025;-63
2023/08/19 10:33:46;;;;;;;7.10;4.32;;;;;;;-142.75;100.00;75198.50;5028497;28;20028;-64
2023/08/19 10:36:15;;;;;;;6.80;4.28;;;;;;;-142.75;100.00;75188.66;5038280;28;20025;-64
2023/08/19 10:38:53;;;;;;;8.80;4.82;;;;;;;-142.75;100.00;75220.16;5029617;28;20035;-64
2023/08/19 10:41:24;;;;;;;11.43;5.13;;;;;;;-142.75;100.00;75243.75;5030197;28;20105;-64
2023/08/19 10:44:00;;;;;;;9.65;4.22;;;;;;;-142.75;100.00;75224.09;5030551;28;20036;-63
2023/08/19 10:46:31;;;;;;;7.55;4.50;;;;;;;-142.75;100.00;75220.16;5036784;28;20033;-64
2023/08/19 10:48:56;;;;;;;7.97;4.90;;;;;;;-142.75;100.00;75235.88;5045520;28;20028;-61
2023/08/19 10:52:02;;;;;;;8.25;5.78;;;;;;;-142.75;100.00;75226.06;5046751;28;20147;-62
2023/08/19 10:54:39;;;;;;;7.03;5.10;;;;;;;-142.75;100.00;75247.69;5035928;28;20112;-62